Date,TemperatureHighF,TemperatureAvgF,TemperatureLowF,DewpointHighF,DewpointAvgF,DewpointLowF,HumidityHigh,HumidityAvg,HumidityLow,PressureMaxIn,PressureMinIn,WindSpeedMaxMPH,WindSpeedAvgMPH,GustSpeedMaxMPH,PrecipitationSumIn
2012-1-1,84.7,63.7,43.3,24.5,21.2,16.1,41,22,11,28.05,27.94,5,1,10,0.00
2012-1-2,81.6,68.0,52.1,24.1,18.1,9.9,18,15,12,28.09,27.97,8,2,11,0.00
2012-1-3,80.0,60.0,44.0,23.3,15.6,6.3,28,18,12,28.11,27.94,7,0,10,0.00
2012-1-4,78.4,59.6,42.4,23.5,18.8,13.3,41,22,13,28.11,27.97,7,1,13,0.00
2012-1-5,77.9,58.7,45.5,23.0,13.3,6.4,20,17,13,28.08,27.83,5,0,9,0.00
2012-1-6,75.0,54.9,39.2,21.4,12.6,4.5,30,19,13,27.88,27.74,4,0,7,0.00
2012-1-7,75.2,57.4,41.5,21.1,13.7,6.4,28,18,13,27.83,27.65,7,1,11,0.00
2012-1-8,58.8,48.3,37.4,17.4,14.1,10.1,40,26,17,27.91,27.73,9,1,11,0.00
2012-1-9,65.3,48.2,33.9,22.5,17.1,12.2,54,31,15,28.04,27.90,6,1,9,0.00
2012-1-10,68.9,50.2,36.3,23.6,17.3,9.8,50,30,15,28.02,27.79,5,0,6,0.00
2012-1-11,67.6,50.2,37.9,21.5,16.1,9.5,44,27,15,27.88,27.72,4,0,9,0.00
2012-1-12,64.5,51.0,43.5,19.7,14.3,8.6,32,24,15,27.84,27.75,6,0,8,0.00
2012-1-13,69.2,51.4,36.5,19.6,12.8,2.5,39,23,15,27.99,27.84,7,1,11,0.00
2012-1-14,74.6,55.0,36.8,21.1,10.3,-1.0,19,17,13,28.00,27.86,8,1,13,0.00
2012-1-15,67.1,58.0,51.0,48.6,20.9,6.4,86,28,15,27.94,27.84,4,0,9,0.00
2012-1-16,61.1,54.2,47.8,50.2,42.3,34.0,95,67,37,27.93,27.82,5,0,11,0.00
2012-1-17,67.1,53.1,43.3,55.6,33.2,15.7,96,55,15,28.05,27.93,6,1,8,0.00
2012-1-18,69.0,51.2,37.2,42.7,27.8,15.9,88,48,15,28.09,27.93,7,1,10,0.00
2012-1-19,46.7,44.7,42.9,27.5,25.9,24.3,53,48,41,27.96,27.93,0,0,0,0.00
2012-1-23,62.9,58.6,55.7,16.0,13.5,11.6,17,17,16,27.69,27.61,5,1,8,0.00
2012-1-24,60.0,51.9,42.4,28.2,22.2,10.8,49,32,17,27.90,27.64,11,2,17,0.00
2012-1-25,66.7,50.3,36.8,36.2,23.8,15.7,73,40,15,28.00,27.87,7,1,11,0.00
2012-1-26,76.6,54.6,37.5,25.5,20.8,14.4,54,31,13,27.97,27.77,6,0,8,0.00
2012-1-27,61.1,55.0,42.2,22.5,19.3,17.4,44,26,19,27.87,27.78,0,0,4,0.00
2012-1-28,76.2,60.0,44.4,28.5,20.8,11.4,50,25,13,28.00,27.85,7,1,11,0.00
2012-1-29,77.3,62.7,50.0,22.6,15.5,9.3,19,16,13,28.01,27.83,6,1,10,0.00
2012-1-30,76.4,58.7,43.1,21.9,16.1,9.3,34,20,13,27.89,27.73,7,1,12,0.00
2012-1-31,74.3,58.5,46.9,21.1,14.1,7.1,26,18,13,27.92,27.77,8,1,13,0.00
2012-2-1,74.6,56.2,39.7,21.1,14.4,6.8,31,20,13,27.97,27.76,7,0,11,0.00
2012-2-2,67.6,52.9,40.2,18.3,10.0,2.2,23,18,15,27.81,27.63,11,2,19,0.00
2012-2-3,65.6,49.0,35.2,17.0,10.0,2.5,32,21,15,27.85,27.75,8,1,11,0.00
2012-2-4,70.1,50.2,35.4,19.9,14.2,7.6,42,25,14,27.88,27.74,7,1,9,0.00
2012-2-5,73.4,53.9,38.4,21.1,15.4,9.2,40,23,13,27.88,27.71,8,1,11,0.00
2012-2-6,68.7,52.5,38.6,21.8,15.4,7.4,41,24,15,27.85,27.75,7,1,11,0.00
2012-2-7,78.9,59.7,41.3,23.5,16.7,6.4,30,20,12,27.84,27.67,8,1,9,0.00
2012-2-8,71.7,60.1,50.9,24.9,17.2,10.9,36,19,14,27.92,27.76,11,1,15,0.00
2012-2-9,73.4,57.4,43.8,33.7,24.0,13.0,58,31,13,27.94,27.80,13,2,19,0.00
2012-2-10,76.4,59.2,42.8,26.7,18.8,10.5,41,22,13,27.98,27.80,8,1,10,0.00
2012-2-11,82.0,62.0,44.7,24.2,17.6,9.9,29,19,12,27.86,27.58,9,1,16,0.00
2012-2-12,67.4,58.9,50.1,21.5,17.3,12.7,29,20,15,27.74,27.60,14,3,16,0.00
2012-2-13,67.4,55.3,41.9,27.6,20.7,14.3,50,28,15,27.81,27.63,8,2,14,0.00
2012-2-14,57.5,48.7,36.8,37.7,27.9,20.7,88,47,24,27.85,27.62,14,2,20,0.12
2012-2-15,65.8,49.5,34.8,38.5,23.0,10.7,86,44,15,27.89,27.69,8,1,9,0.00
2012-2-16,64.7,53.2,45.3,32.1,18.9,13.9,57,28,15,27.78,27.69,9,2,13,0.00
2012-2-17,55.9,48.7,44.6,35.4,32.9,30.4,67,55,39,27.90,27.78,6,1,8,0.00
2012-2-18,67.8,52.0,38.3,47.5,26.3,11.4,90,45,15,27.94,27.78,8,1,10,0.00
2012-2-19,66.2,53.7,41.1,26.5,19.6,13.9,46,28,15,27.81,27.60,10,2,17,0.00
2012-2-20,68.3,53.4,40.1,34.4,21.2,9.6,73,33,15,27.90,27.77,7,1,11,0.00
2012-2-21,74.4,55.8,38.6,21.1,16.0,9.3,40,22,13,27.94,27.80,8,1,9,0.00
2012-2-22,76.4,57.9,40.6,21.9,15.6,9.2,31,20,13,27.93,27.71,8,1,12,0.00
2012-2-23,77.3,59.5,41.0,22.6,14.5,6.1,28,17,13,27.75,27.56,8,1,15,0.00
2012-2-24,79.5,61.2,44.9,23.6,15.8,7.6,28,17,12,27.88,27.70,7,1,11,0.00
2012-2-25,78.6,60.5,43.3,23.6,16.3,8.9,33,18,13,27.90,27.67,7,1,13,0.00
2012-2-26,79.3,61.4,44.2,23.6,14.9,6.3,23,16,12,27.76,27.58,11,2,18,0.00
2012-2-27,75.0,63.2,52.5,30.2,17.7,10.2,36,18,13,27.74,27.55,17,6,23,0.00
2012-2-28,60.8,51.9,43.1,27.8,17.2,11.4,37,26,16,27.96,27.71,11,3,19,0.00
2012-2-29,68.7,52.1,36.3,25.2,16.9,7.3,52,28,15,27.99,27.81,9,2,13,0.00
2012-3-1,71.6,56.0,39.7,19.9,14.4,8.1,33,20,14,27.90,27.65,10,2,13,0.00
2012-3-2,61.1,51.7,41.0,19.3,11.2,0.9,29,20,15,27.97,27.70,12,3,24,0.00
2012-3-3,69.2,52.0,35.4,19.6,8.1,-2.0,20,17,15,28.08,27.93,8,1,12,0.00
2012-3-4,83.6,60.4,39.0,24.5,12.8,0.0,19,15,11,28.02,27.76,8,1,10,0.00
2012-3-5,86.3,64.5,44.0,25.5,15.1,2.6,20,15,11,27.88,27.72,5,1,8,0.00
2012-3-6,80.6,66.2,47.8,23.6,16.4,4.1,18,15,12,27.79,27.49,14,4,21,0.00
2012-3-7,64.0,55.1,43.7,16.9,10.5,2.5,18,17,15,27.81,27.51,12,4,20,0.00
2012-3-8,67.8,50.7,33.2,18.4,7.9,-3.0,20,17,15,28.04,27.81,7,2,13,0.00
2012-3-9,63.8,55.7,49.6,16.8,10.7,5.3,18,16,15,28.05,27.83,11,5,19,0.00
2012-3-10,64.4,55.0,46.7,17.0,12.5,6.8,24,18,15,27.84,27.75,9,3,15,0.00
2012-3-11,66.5,56.5,39.3,19.1,13.9,4.6,30,19,15,27.86,27.81,4,0,6,0.00
2012-3-15,66.9,62.7,58.8,17.7,15.9,14.1,17,16,15,27.79,27.75,4,1,5,0.00
2012-3-16,86.7,67.2,47.4,25.9,16.3,4.1,17,14,11,27.81,27.60,8,1,13,0.00
2012-3-17,79.1,67.6,54.1,23.6,17.8,7.5,17,15,12,27.70,27.49,13,4,17,0.00
2012-3-18,63.3,50.4,40.4,41.6,25.0,14.3,84,42,16,27.72,27.46,18,4,31,0.36
2012-3-19,49.6,42.7,37.4,34.0,24.4,15.8,74,49,29,27.79,27.63,13,2,17,0.12
2012-3-20,61.7,47.5,32.0,39.6,22.1,12.0,93,44,16,27.90,27.75,12,2,17,0.00
2012-3-21,71.7,55.0,37.5,29.5,20.0,14.3,59,30,14,27.91,27.68,11,1,17,0.00
2012-3-22,82.2,62.8,43.3,32.3,23.6,14.3,60,27,12,27.78,27.64,6,1,11,0.00
2012-3-23,85.4,68.4,51.6,28.0,20.9,14.2,36,17,11,27.83,27.67,7,1,15,0.00
2012-3-24,88.8,69.2,49.2,26.6,20.8,14.5,34,17,10,27.80,27.63,6,0,9,0.00
2012-3-25,84.5,71.5,55.7,24.5,19.5,11.6,17,14,11,27.73,27.60,10,2,15,0.00
2012-3-26,77.9,73.0,55.0,23.0,21.6,14.9,28,15,13,27.79,27.64,7,2,11,0.00
2012-3-27,85.2,66.8,46.2,29.7,23.0,15.3,48,22,11,27.83,27.66,7,1,11,0.00
2012-3-28,87.0,68.5,50.7,26.1,19.3,11.7,26,16,11,27.83,27.63,9,1,13,0.00
2012-3-29,86.0,67.9,49.8,25.3,17.8,9.6,21,15,11,27.80,27.63,9,1,13,0.00
2012-3-30,86.9,69.0,51.6,26.0,18.1,9.6,19,15,11,27.80,27.66,8,1,11,0.00
2012-3-31,91.0,73.5,55.9,26.7,20.0,11.7,17,14,10,27.79,27.59,8,1,14,0.00
2012-4-1,75.2,64.9,55.4,21.0,16.7,11.3,17,15,13,27.67,27.53,13,2,20,0.00
2012-4-2,65.4,55.8,43.1,17.0,10.6,2.5,18,16,14,27.71,27.60,10,2,23,0.00
2012-4-3,74.6,58.8,42.4,21.1,12.1,1.9,18,16,13,27.80,27.65,13,2,15,0.00
2012-4-4,82.2,64.8,46.2,24.5,15.2,3.6,17,15,12,27.79,27.61,8,1,12,0.00
2012-4-5,84.0,71.3,57.9,24.4,19.3,13.3,17,14,11,27.72,27.54,10,2,15,0.00
2012-4-6,81.5,67.2,51.9,23.9,17.6,7.2,18,15,12,27.82,27.69,8,1,14,0.00
2012-4-7,88.8,70.1,51.0,26.6,17.9,6.4,18,14,10,27.86,27.72,5,0,9,0.00
2012-4-8,93.0,73.7,53.7,27.0,19.5,7.2,18,13,9,27.89,27.68,8,1,11,0.00
2012-4-9,92.6,75.1,57.3,27.0,20.6,12.9,17,13,9,27.82,27.65,6,0,10,0.00
2012-4-10,94.2,74.3,56.6,31.6,20.4,12.3,17,13,9,27.76,27.57,9,1,15,0.00
2012-4-11,77.7,67.3,59.5,22.9,17.8,14.3,17,15,13,27.79,27.66,15,3,19,0.00
2012-4-12,70.3,61.2,52.3,30.4,21.1,11.4,37,22,14,27.86,27.75,10,2,17,0.00
2012-4-13,78.4,63.7,45.8,23.5,16.6,8.2,27,16,13,27.77,27.50,9,2,15,0.00
2012-4-14,62.0,53.4,41.7,39.9,20.5,10.2,82,32,16,27.77,27.54,15,5,23,0.16
2012-4-15,67.1,54.7,39.3,28.7,21.1,15.0,64,30,15,27.90,27.77,10,2,20,0.00
2012-4-16,80.2,64.3,45.5,29.0,22.4,14.4,50,23,12,27.94,27.79,8,1,11,0.00
2012-4-17,91.0,71.4,50.0,26.7,21.3,14.5,29,16,10,27.86,27.66,8,1,11,0.00
2012-4-18,93.2,75.6,53.9,32.8,20.9,11.4,20,13,9,27.80,27.62,10,1,15,0.00
2012-4-19,90.1,75.3,55.9,26.6,20.8,11.7,17,13,10,27.78,27.60,8,1,15,0.00
2012-4-20,94.2,77.3,57.5,32.8,22.3,13.0,17,13,9,27.79,27.65,9,1,15,0.00
2012-4-21,99.8,80.8,60.4,34.8,24.1,14.3,17,13,9,27.78,27.61,6,1,14,0.00
2012-4-22,101.8,83.2,62.6,35.0,25.1,15.7,16,12,9,27.77,27.58,7,1,9,0.00
2012-4-23,101.6,85.0,68.3,34.8,25.8,18.4,15,12,9,27.77,27.59,10,1,17,0.00
2012-4-24,95.9,79.9,62.9,32.9,24.8,17.1,24,14,9,27.76,27.62,9,1,13,0.00
2012-4-25,95.7,79.4,64.4,32.7,22.2,15.7,15,12,9,27.77,27.62,7,1,13,0.00
2012-4-26,80.2,73.0,65.4,24.6,20.5,16.6,16,14,12,27.78,27.67,13,3,21,0.00
2012-4-27,83.1,68.7,52.8,25.9,19.9,11.4,28,16,11,27.80,27.61,9,2,14,0.00
2012-4-28,87.9,73.1,55.5,26.4,20.9,13.8,25,14,10,27.67,27.48,8,1,13,0.00
2012-4-29,88.7,75.6,60.6,26.6,21.7,15.9,24,14,10,27.69,27.57,9,1,12,0.00
2012-4-30,92.4,76.6,60.2,32.4,22.5,14.3,24,14,9,27.76,27.60,8,1,13,0.00
2012-5-1,91.5,78.2,63.3,27.0,22.5,15.7,18,13,9,27.70,27.51,9,2,15,0.00
2012-5-2,89.0,75.6,60.0,26.6,21.4,14.4,19,13,10,27.71,27.57,9,2,12,0.00
2012-5-3,92.1,77.6,58.8,27.0,21.6,14.1,17,13,9,27.77,27.62,10,2,15,0.00
2012-5-4,93.9,80.6,58.1,31.4,24.1,13.5,17,13,9,27.80,27.71,5,0,11,0.00
2012-5-5,93.9,79.6,62.2,31.4,22.5,15.5,16,12,9,27.78,27.60,11,2,20,0.00
2012-5-6,67.4,66.5,65.4,17.9,17.4,16.6,15,15,15,27.72,27.72,0,0,0,0.00
2012-5-10,74.4,70.9,68.5,20.4,19.3,18.4,15,14,13,27.62,27.59,4,0,5,0.00
2012-5-11,95.3,79.6,61.5,32.8,23.6,15.7,21,13,9,27.74,27.59,10,2,15,0.00
2012-5-12,95.5,80.4,60.9,32.7,23.3,14.4,16,12,9,27.82,27.68,6,1,13,0.00
2012-5-13,98.9,81.3,60.8,34.5,24.0,14.3,16,12,9,27.82,27.62,10,1,13,0.00
2012-5-14,99.3,82.5,64.0,34.6,24.8,15.7,16,12,9,27.76,27.58,8,1,13,0.00
2012-5-15,98.2,87.2,73.7,34.6,26.8,19.8,13,11,9,27.72,27.56,11,2,17,0.00
2012-5-16,101.1,87.4,70.1,34.8,26.9,18.7,14,11,9,27.69,27.52,11,2,15,0.00
2012-5-17,99.3,85.4,65.1,34.8,26.4,16.3,15,12,9,27.71,27.52,11,2,17,0.00
2012-5-18,93.9,83.2,71.0,32.8,24.4,19.4,14,12,9,27.62,27.47,15,4,25,0.00
2012-5-19,92.8,78.9,60.9,27.0,22.0,14.4,16,12,9,27.69,27.59,9,1,12,0.00
2012-5-20,101.4,82.4,62.4,34.8,24.8,15.6,16,12,9,27.73,27.61,9,1,11,0.00
2012-5-21,105.6,86.8,64.7,35.1,26.7,16.0,15,12,9,27.76,27.58,9,1,14,0.00
2012-5-22,104.5,88.1,66.0,35.1,27.4,17.0,15,11,9,27.75,27.52,10,2,20,0.00
2012-5-23,99.3,87.2,71.2,34.8,27.1,19.6,14,11,9,27.59,27.40,15,4,25,0.00
2012-5-24,95.7,84.4,71.9,32.8,25.3,19.5,14,12,9,27.50,27.35,12,4,17,0.00
2012-5-25,93.2,82.1,69.0,32.7,23.5,18.4,15,12,9,27.53,27.41,14,5,18,0.00
2012-5-26,81.8,74.1,61.1,24.2,20.8,14.6,16,13,12,27.69,27.52,9,2,20,0.00
2012-5-27,84.5,69.8,52.5,24.5,18.0,7.0,17,14,11,27.78,27.66,8,1,11,0.00
2012-5-28,94.4,79.5,54.3,31.8,21.2,7.6,17,12,9,27.76,27.62,7,0,13,0.00
2012-5-29,98.2,83.0,57.7,34.6,24.7,13.2,17,12,9,27.78,27.62,8,1,12,0.00
2012-5-30,96.6,80.4,60.9,33.4,23.5,14.4,16,12,9,27.77,27.59,10,1,15,0.00
2012-5-31,100.7,84.1,64.0,34.8,25.5,15.7,16,12,9,27.66,27.49,8,1,13,0.00
2012-6-1,107.0,90.5,67.8,36.2,28.4,18.4,15,11,9,27.65,27.48,9,1,13,0.00
2012-6-2,101.3,87.7,70.5,34.8,27.1,19.0,14,11,9,27.69,27.52,8,1,12,0.00
2012-6-3,100.7,86.4,68.7,34.8,26.6,18.4,15,12,9,27.71,27.59,11,2,15,0.00
2012-6-4,100.5,85.9,70.5,34.8,26.2,19.0,14,12,9,27.74,27.55,10,1,12,0.00
2012-6-5,100.2,84.8,68.7,34.8,26.0,18.4,15,12,9,27.68,27.50,7,1,16,0.00
2012-6-6,101.4,85.8,65.8,34.8,26.3,16.9,15,12,9,27.63,27.46,11,2,15,0.00
2012-6-7,103.4,86.6,65.6,35.1,26.5,16.7,15,12,9,27.66,27.55,9,1,13,0.00
2012-6-8,102.9,86.7,65.8,35.1,26.8,16.9,15,12,9,27.69,27.52,10,2,15,0.00
2012-6-9,100.7,86.4,69.8,34.8,26.5,18.4,14,12,9,27.62,27.46,13,3,23,0.00
2012-6-10,99.8,85.5,69.0,34.8,26.1,18.4,15,12,9,27.66,27.55,11,2,17,0.00
2012-6-11,102.3,87.4,69.2,35.0,27.1,18.4,15,11,9,27.74,27.61,8,1,12,0.00
2012-6-12,104.0,87.6,67.6,35.1,27.1,18.3,15,11,9,27.77,27.55,8,1,13,0.00
2012-6-13,103.8,88.5,69.4,35.1,27.6,18.4,15,11,9,27.65,27.46,8,1,13,0.00
2012-6-14,101.4,86.7,68.3,34.8,27.0,18.4,15,12,9,27.67,27.49,11,2,13,0.00
2012-6-15,100.9,86.4,70.8,34.8,26.4,19.3,14,11,9,27.67,27.49,11,2,15,0.00
2012-6-16,100.4,82.7,68.3,51.4,26.9,18.4,39,13,9,27.74,27.58,11,1,26,0.04
2012-6-17,104.7,88.9,68.3,37.9,32.2,22.6,32,15,9,27.75,27.55,11,2,17,0.00
2012-6-18,104.3,91.5,73.4,35.1,28.7,19.5,13,11,9,27.66,27.49,9,2,19,0.00
2012-6-19,103.2,91.1,72.3,35.1,28.5,19.5,14,11,9,27.60,27.46,11,2,15,0.00
2012-6-20,103.8,89.0,68.1,35.1,27.8,18.6,15,11,9,27.61,27.49,9,2,17,0.00
2012-6-21,105.6,90.4,70.1,35.1,28.1,18.7,14,11,9,27.71,27.52,9,1,13,0.00
2012-6-22,106.8,91.4,75.3,36.1,28.6,21.1,13,11,9,27.66,27.43,8,1,13,0.00
2012-6-23,105.4,91.7,75.0,35.0,29.0,20.8,13,11,9,27.61,27.46,10,2,18,0.00
2012-6-24,101.8,90.2,79.1,40.5,32.1,22.8,22,13,10,27.73,27.60,9,1,15,0.00
2012-6-25,102.5,90.3,78.4,40.4,33.6,26.9,25,14,9,27.79,27.58,9,2,15,0.00
2012-6-26,105.8,90.3,79.1,39.1,33.0,28.9,21,14,9,27.67,27.52,11,2,19,0.00
2012-6-27,106.7,91.4,80.9,35.9,31.2,27.2,14,12,9,27.72,27.57,11,2,17,0.00
2012-6-28,103.6,90.9,78.6,35.1,31.4,24.9,18,12,9,27.79,27.64,10,2,20,0.00
2012-6-29,104.5,93.7,77.7,35.6,31.8,23.1,20,12,9,27.82,27.58,10,2,17,0.00
2012-6-30,103.2,91.9,78.4,42.9,34.2,24.5,28,14,9,27.73,27.52,11,2,19,0.00
2012-7-1,104.7,92.7,80.2,35.1,29.8,22.6,13,11,9,27.66,27.49,10,2,17,0.00
2012-7-2,102.2,89.7,78.2,36.1,31.3,22.6,19,13,9,27.70,27.52,13,2,15,0.00
2012-7-3,93.9,82.3,70.3,65.7,40.5,30.6,85,26,11,27.77,27.59,10,1,15,0.12
2012-7-4,89.0,74.0,69.2,67.8,61.4,43.4,91,69,21,27.77,27.69,14,1,24,0.47
2012-7-5,69.2,68.9,68.7,64.6,63.7,62.8,87,84,81,27.74,27.74,0,0,0,0.00
2012-7-6,97.5,91.8,81.6,42.3,33.8,27.8,21,13,11,27.78,27.62,10,3,17,0.00
2012-7-7,102.7,88.4,75.5,35.0,32.5,27.1,22,14,9,27.77,27.62,11,2,15,0.00
2012-7-8,104.9,87.6,78.9,40.2,35.1,29.5,25,16,9,27.79,27.67,11,1,16,0.00
2012-7-9,104.1,89.9,77.1,41.5,35.4,30.3,28,16,9,27.76,27.61,9,1,17,0.00
2012-7-10,104.7,91.0,79.8,48.5,35.7,28.2,31,15,9,27.73,27.55,8,1,12,0.12
2012-7-11,103.4,92.3,79.3,48.0,37.4,30.9,33,16,9,27.75,27.55,9,2,13,0.00
2012-7-12,102.9,88.0,77.3,54.1,43.0,30.9,43,24,9,27.73,27.55,10,2,13,0.00
2012-7-13,93.3,81.1,74.4,54.7,48.9,39.2,44,34,17,27.79,27.68,9,1,13,0.00
2012-7-14,93.0,80.0,73.7,64.3,55.8,44.9,72,46,20,27.80,27.71,16,2,21,0.00
2012-7-15,98.4,79.7,68.7,66.5,53.0,37.7,90,47,13,27.79,27.62,16,1,29,1.45
2012-7-16,93.7,82.2,69.4,63.3,48.2,38.9,80,36,16,27.77,27.63,9,1,11,0.04
2012-7-17,97.3,85.6,74.8,53.0,39.3,26.9,45,22,11,27.79,27.65,8,1,15,0.00
2012-7-18,99.5,86.7,70.1,39.6,31.7,22.7,31,15,10,27.77,27.62,9,2,17,0.00
2012-7-19,100.4,86.9,75.0,38.9,31.9,23.7,23,14,10,27.79,27.64,11,1,17,0.00
2012-7-20,103.6,84.0,71.4,67.1,45.5,30.9,85,33,9,27.86,27.65,8,1,13,0.16
2012-7-21,97.3,82.3,71.2,67.3,51.6,37.9,87,39,13,27.80,27.69,8,1,13,0.12
2012-7-22,92.4,77.6,71.2,63.0,57.0,41.1,74,52,18,27.83,27.74,13,0,18,0.12
2012-7-23,99.8,82.0,69.9,63.4,53.0,32.5,79,43,10,27.83,27.67,9,1,11,0.12
2012-7-24,98.2,77.7,70.7,62.6,54.0,37.0,69,48,13,27.80,27.71,18,0,29,0.43
2012-7-25,98.4,84.9,70.5,59.8,41.0,28.0,69,27,11,27.81,27.65,9,1,12,0.00
2012-7-26,97.7,86.9,75.7,49.0,37.0,28.1,39,19,11,27.76,27.65,8,1,17,0.00
2012-7-27,100.9,87.2,75.9,57.1,39.1,31.2,52,21,10,27.80,27.59,9,2,17,0.00
2012-7-28,97.8,79.4,72.6,67.0,56.8,42.0,81,51,16,27.80,27.68,11,1,13,0.04
2012-7-29,94.2,76.6,69.9,70.6,61.6,40.7,97,67,17,27.83,27.69,12,1,15,1.77
2012-7-30,84.2,77.1,71.9,67.2,50.8,37.4,84,47,19,27.85,27.78,9,2,17,0.00
2012-7-31,97.5,83.7,70.3,59.9,46.0,35.4,66,31,13,27.88,27.71,6,1,11,0.00
2012-8-1,98.9,85.8,72.5,60.3,41.8,28.2,63,26,10,27.89,27.71,6,1,11,0.00
2012-8-2,101.4,87.0,71.9,49.0,37.1,28.7,44,19,10,27.82,27.62,7,1,11,0.00
2012-8-3,102.2,88.2,72.5,43.9,34.1,28.0,33,16,9,27.74,27.55,8,1,11,0.00
2012-8-4,102.7,88.9,73.4,47.0,34.6,28.1,37,16,9,27.72,27.61,12,1,17,0.00
2012-8-5,105.4,87.0,72.5,66.0,42.1,31.4,77,26,9,27.86,27.64,17,1,22,0.36
2012-8-6,106.7,86.6,71.0,67.7,49.1,30.9,86,36,9,27.86,27.67,8,1,15,0.04
2012-8-7,102.2,89.2,72.5,65.7,43.7,30.2,71,27,9,27.83,27.61,8,1,13,0.00
2012-8-8,106.5,88.5,74.8,65.1,43.1,32.5,72,24,9,27.79,27.60,9,2,15,0.39
2012-8-9,107.6,90.5,76.1,57.4,41.4,28.0,51,22,8,27.79,27.58,8,1,11,0.00
2012-8-10,106.8,92.0,75.0,47.8,34.9,26.9,31,15,9,27.76,27.52,5,0,13,0.00
2012-8-11,104.5,89.2,78.2,49.1,36.9,30.2,35,17,9,27.70,27.58,6,0,13,0.00
2012-8-12,109.4,92.2,72.8,49.4,39.1,32.7,41,19,8,27.71,27.54,8,1,11,0.00
2012-8-13,110.1,94.3,77.5,40.1,33.2,27.1,23,12,8,27.70,27.54,9,2,14,0.00
2012-8-14,107.4,88.7,74.6,61.4,38.0,26.9,62,20,9,27.70,27.52,16,2,22,0.52
2012-8-15,94.4,83.1,71.9,61.6,49.6,39.4,70,36,17,27.76,27.56,11,2,15,0.00
2012-8-16,90.5,80.2,73.7,60.7,51.3,42.6,61,39,21,27.82,27.66,6,0,8,0.00
2012-8-17,90.1,77.2,71.4,68.9,62.0,48.3,85,63,25,27.83,27.76,9,1,13,0.00
2012-8-18,93.9,82.3,71.2,68.0,54.5,42.7,87,46,19,27.80,27.62,11,2,14,0.00
2012-8-19,100.7,84.6,72.5,63.6,49.1,32.5,67,34,10,27.74,27.55,8,1,13,0.00
2012-8-20,101.4,84.7,73.7,68.0,51.9,33.5,82,39,10,27.77,27.59,13,1,15,0.00
2012-8-21,99.1,82.5,73.0,64.6,53.4,35.6,75,40,14,27.77,27.61,11,2,17,0.00
2012-8-22,88.5,75.8,68.7,69.7,60.7,43.1,91,64,22,27.87,27.66,7,1,10,0.87
2012-8-23,91.4,81.0,72.6,72.2,58.5,44.7,92,54,21,27.77,27.65,6,1,13,0.00
2012-8-24,93.5,83.4,73.9,62.6,45.5,36.6,67,30,14,27.71,27.59,4,1,8,0.00
2012-8-25,96.9,83.5,70.3,57.0,44.0,34.3,62,29,13,27.71,27.56,8,1,15,0.00
2012-8-26,102.2,86.5,71.9,54.2,41.0,31.2,53,24,10,27.75,27.61,9,1,13,0.00
2012-8-27,103.2,88.4,76.2,51.9,39.3,30.2,42,20,9,27.78,27.64,9,1,13,0.00
2012-8-28,104.9,89.1,73.5,47.0,36.1,23.7,39,17,9,27.81,27.64,6,1,11,0.00
2012-8-29,102.2,86.8,70.1,49.2,35.6,21.8,45,19,9,27.77,27.55,8,1,17,0.00
2012-8-30,100.5,84.5,72.1,58.7,45.0,30.8,62,29,10,27.74,27.55,11,1,14,0.00
2012-8-31,97.3,84.6,71.9,52.4,44.1,32.6,50,27,11,27.77,27.62,8,1,12,0.00
2012-9-1,104.7,87.9,72.1,53.5,40.4,30.2,49,22,9,27.77,27.61,9,1,11,0.00
2012-9-2,104.7,84.8,74.1,52.4,42.1,30.6,46,24,9,27.77,27.61,11,1,16,0.00
2012-9-3,96.4,83.9,72.1,49.7,44.6,38.9,45,27,16,27.89,27.68,10,2,15,0.00
2012-9-4,89.6,80.5,73.5,52.3,47.1,41.5,46,32,19,27.92,27.72,8,2,13,0.00
2012-9-5,92.8,83.4,74.4,60.3,49.6,38.6,60,34,17,27.83,27.65,11,3,18,0.00
2012-9-6,96.8,79.1,71.6,68.0,57.7,42.4,87,54,17,27.80,27.65,9,1,15,0.16
2012-9-7,87.8,77.2,70.7,69.6,60.5,52.4,88,59,30,27.85,27.72,9,1,15,0.00
2012-9-8,74.1,73.7,73.2,64.7,63.8,63.1,74,71,69,27.77,27.77,0,0,0,0.00
2012-9-9,93.3,82.7,68.3,60.2,44.7,35.2,75,30,14,27.84,27.71,6,1,12,0.00
2012-9-10,94.4,75.7,69.0,60.2,52.9,35.6,71,49,14,27.86,27.69,9,1,15,0.04
2012-9-11,88.3,73.4,68.5,65.6,54.0,38.9,79,54,19,27.83,27.74,11,1,14,0.04
2012-9-12,87.9,76.8,67.1,67.0,52.8,40.2,93,50,20,27.84,27.72,11,2,15,0.04
2012-9-13,96.4,79.4,64.7,59.1,43.7,31.2,76,34,11,27.89,27.71,11,2,18,0.12
2012-9-14,86.1,77.6,71.4,32.9,29.2,24.4,22,17,13,27.92,27.81,8,4,17,0.00
2012-9-15,92.4,78.8,68.1,32.4,24.4,18.4,19,14,9,27.94,27.80,7,2,15,0.00
2012-9-16,94.2,77.7,60.6,34.6,27.1,18.7,31,17,10,27.92,27.74,10,1,15,0.00
2012-9-17,92.1,78.0,62.9,38.6,29.5,20.0,35,18,12,27.87,27.71,9,1,15,0.00
2012-9-18,96.0,80.8,64.7,45.0,34.1,20.4,44,22,11,27.87,27.71,7,1,11,0.00
2012-9-19,100.5,83.4,66.0,34.8,27.5,18.4,24,14,9,27.87,27.71,8,1,13,0.00
2012-9-20,100.4,84.3,71.4,34.8,26.6,19.7,17,12,9,27.88,27.74,6,0,10,0.00
2012-9-21,100.7,84.7,69.0,34.8,26.6,18.4,17,12,9,28.32,27.82,8,1,12,0.00
2012-9-22,102.7,84.5,69.6,35.1,26.0,18.6,17,12,9,28.95,27.98,11,1,16,0.00
2012-9-23,101.4,85.6,67.6,34.8,26.7,18.4,17,12,9,31.79,28.43,8,0,13,0.00
2012-9-24,97.1,82.2,66.7,33.8,25.7,18.2,20,13,9,31.81,29.35,8,1,15,0.00
2012-9-25,95.3,81.1,65.8,32.8,25.4,17.7,20,13,10,31.71,27.59,8,1,12,0.00
2012-9-26,93.3,80.2,67.2,38.1,28.0,19.5,33,16,10,27.72,27.59,9,1,12,0.00
2012-9-27,94.1,79.2,64.7,32.8,26.1,18.4,25,15,10,27.79,27.65,9,1,15,0.00
2012-9-28,90.8,77.3,70.7,34.7,28.2,19.5,23,17,12,27.77,27.66,9,2,14,0.00
2012-9-29,95.9,79.4,65.6,39.2,29.3,19.5,35,17,10,27.84,27.68,9,2,12,0.00
2012-9-30,97.3,81.1,63.3,35.0,28.5,20.2,33,16,9,27.82,27.65,8,1,15,0.00
2012-10-1,98.7,80.7,63.8,34.8,24.1,15.7,16,13,9,27.79,27.65,7,1,11,0.00
2012-10-2,99.8,82.3,65.1,34.8,24.7,16.3,15,12,9,27.78,27.61,7,1,11,0.00
2012-10-3,99.1,81.6,65.8,34.8,24.4,16.7,15,12,9,27.83,27.70,9,1,12,0.00
2012-10-4,95.1,79.9,64.9,32.8,23.5,16.1,15,13,10,27.90,27.77,9,2,15,0.00
2012-10-5,93.3,76.9,60.6,32.7,22.7,15.7,24,14,9,27.88,27.68,5,1,11,0.00
2012-10-6,89.7,75.8,61.7,26.6,21.4,15.0,19,13,10,27.78,27.63,7,1,11,0.00
2012-10-7,91.7,75.4,62.6,31.6,21.0,15.7,16,13,9,27.75,27.62,8,1,11,0.00
2012-10-8,92.3,76.1,60.4,32.3,21.5,14.4,19,13,9,27.80,27.65,5,0,9,0.00
2012-10-9,92.8,77.0,61.3,32.7,21.6,14.7,18,13,9,27.81,27.65,7,0,9,0.00
2012-10-10,92.1,75.5,60.0,32.1,21.6,14.3,22,14,10,27.82,27.62,8,1,11,0.00
2012-10-11,83.6,73.7,65.8,43.8,26.8,16.9,43,18,11,27.74,27.63,5,0,8,0.00
2012-10-12,74.8,66.9,57.5,38.9,26.9,18.5,43,23,16,27.88,27.71,10,1,15,0.00
2012-10-13,78.6,63.4,49.6,30.9,22.0,14.3,40,22,13,27.95,27.79,9,1,12,0.00
2012-10-14,93.2,72.8,51.0,32.8,22.9,15.3,32,17,9,27.89,27.69,8,1,11,0.00
2012-10-15,94.8,75.4,58.8,32.0,20.9,14.1,17,13,9,27.82,27.63,6,0,9,0.00
2012-10-16,89.7,72.4,56.3,26.6,19.6,11.9,17,14,10,27.75,27.57,7,1,10,0.00
2012-10-17,88.8,73.4,59.3,26.6,20.2,14.3,17,14,10,27.78,27.63,7,1,14,0.00
2012-10-18,86.1,73.7,64.0,55.5,38.5,17.3,68,32,15,27.87,27.69,9,2,15,0.00
2012-10-19,91.9,74.6,59.1,40.7,29.8,18.4,50,23,9,27.79,27.59,7,1,10,0.00
2012-10-20,89.2,74.4,60.0,31.9,23.1,16.1,24,15,10,27.72,27.57,8,1,13,0.00
2012-10-21,86.1,72.1,59.3,33.3,25.7,16.9,35,19,11,27.73,27.60,7,1,11,0.00
2012-10-22,86.3,69.7,54.6,31.7,23.7,17.7,36,19,11,27.76,27.66,7,0,10,0.00
2012-10-23,87.9,71.7,55.9,31.9,25.4,18.6,36,19,11,27.73,27.60,6,1,11,0.00
2012-10-24,82.7,69.5,57.5,30.7,23.0,14.3,32,18,11,27.76,27.63,8,1,16,0.00
2012-10-25,81.1,64.0,48.9,23.7,16.0,8.4,19,16,12,27.85,27.70,8,1,11,0.00
2012-10-26,85.6,65.5,48.5,24.6,15.4,4.4,19,14,11,27.83,27.66,7,1,11,0.00
2012-10-27,89.6,69.9,54.6,26.1,18.5,11.3,18,14,10,27.78,27.63,5,1,11,0.00
2012-10-28,89.7,70.6,53.2,26.4,18.7,10.8,20,14,10,27.84,27.69,7,1,11,0.00
2012-10-29,88.8,71.4,54.6,26.6,19.2,11.4,20,14,10,27.92,27.75,11,1,13,0.00
2012-10-30,88.5,70.2,54.3,26.6,18.9,11.3,20,14,10,27.89,27.72,7,1,12,0.00
2012-10-31,89.0,70.5,53.9,26.6,18.8,11.3,18,14,10,27.86,27.69,5,0,8,0.00
2012-11-1,89.6,69.8,53.0,26.6,18.6,10.7,18,14,10,27.83,27.66,5,0,8,0.00
2012-11-2,84.3,67.8,52.3,24.5,17.6,10.1,18,15,11,27.79,27.63,8,0,10,0.00
2012-11-3,83.3,68.1,53.0,26.3,19.8,14.1,28,16,11,27.86,27.73,5,0,8,0.00
2012-11-4,86.1,68.0,51.6,25.5,19.8,13.0,27,17,11,27.92,27.78,7,1,11,0.00
2012-11-5,89.7,69.7,52.3,26.4,18.4,10.1,21,14,10,27.94,27.78,8,1,9,0.00
2012-11-6,91.2,69.8,51.2,27.0,18.2,6.7,19,14,10,27.95,27.78,8,1,9,0.00
2012-11-7,91.9,71.5,53.2,27.0,19.1,10.8,18,14,9,27.89,27.68,6,0,16,0.00
2012-11-8,85.2,71.0,62.2,24.8,20.2,15.5,21,15,11,27.78,27.63,8,1,11,0.00
2012-11-9,76.2,67.1,59.1,51.0,35.4,20.8,74,34,17,27.76,27.55,12,3,18,0.12
2012-11-10,61.3,54.0,46.9,43.9,21.4,9.5,75,30,16,27.83,27.60,10,3,16,0.00
2012-11-11,62.9,48.3,37.0,21.8,11.9,4.1,42,24,16,28.06,27.83,6,1,11,0.00
2012-11-12,73.0,55.7,36.3,21.0,12.7,4.5,29,19,14,28.06,27.83,8,1,13,0.00
2012-11-13,76.4,56.6,40.8,21.9,10.7,0.6,21,16,13,27.97,27.79,6,1,9,0.00
2012-11-14,85.8,61.8,44.2,25.2,13.4,2.5,18,15,11,27.93,27.76,6,0,8,0.00
2012-11-15,79.7,61.3,46.0,23.6,13.5,3.6,18,15,12,27.91,27.79,4,0,6,0.00
2012-11-16,79.3,67.2,53.2,23.5,17.4,10.8,18,15,12,27.90,27.82,6,0,9,0.00
2012-11-17,78.2,66.3,51.8,34.6,17.6,9.6,36,16,13,27.91,27.79,4,0,6,0.00
2012-11-18,78.4,65.6,56.1,42.7,31.6,21.7,60,31,15,27.94,27.82,6,0,9,0.00
2012-11-19,76.6,62.6,48.7,39.7,28.1,17.3,63,31,13,28.00,27.89,7,0,9,0.00
2012-11-20,81.5,63.7,47.4,31.4,23.5,15.2,48,25,12,27.96,27.76,6,0,10,0.00
2012-11-21,83.1,65.6,54.6,28.3,20.9,13.3,29,19,11,27.86,27.73,6,0,8,0.00
2012-11-22,82.4,63.1,48.0,26.0,19.0,11.4,31,19,11,27.95,27.79,6,1,9,0.00
2012-11-23,86.1,66.6,48.0,25.5,19.1,11.3,28,17,11,27.98,27.84,6,1,10,0.00
2012-11-24,86.0,71.2,59.3,25.3,19.3,14.3,17,14,11,27.93,27.72,4,0,10,0.00
2012-11-25,84.9,65.2,49.6,25.1,18.0,11.3,28,17,11,27.80,27.63,6,0,9,0.00
2012-11-26,82.2,61.8,46.0,24.5,14.2,3.6,19,16,12,27.92,27.76,6,0,10,0.00
2012-11-27,83.4,64.1,46.5,24.5,15.9,6.5,19,16,11,27.99,27.82,7,0,11,0.00
2012-11-28,79.7,63.9,49.2,23.6,16.5,8.9,21,16,12,27.98,27.82,5,0,8,0.00
2012-11-29,76.1,60.4,46.2,26.8,18.9,11.7,39,21,13,27.99,27.86,6,1,11,0.00
2012-11-30,79.3,59.8,44.7,26.9,21.2,15.9,38,24,12,27.96,27.79,6,1,8,0.00
2012-12-1,77.3,59.8,44.6,29.7,22.4,11.4,50,26,13,27.93,27.79,6,0,9,0.00
2012-12-2,79.1,59.8,45.6,23.5,18.5,13.8,30,21,12,27.90,27.76,5,0,9,0.00
2012-12-3,74.3,59.8,46.7,25.1,19.1,15.3,34,22,13,27.95,27.83,7,1,11,0.00
2012-12-4,77.7,60.5,45.6,28.7,22.9,15.5,44,26,13,28.03,27.88,7,0,8,0.00
2012-12-5,82.4,62.5,48.3,24.6,19.4,11.3,31,20,11,27.95,27.73,6,0,8,0.00
2012-12-6,78.6,62.3,48.3,23.6,16.9,9.9,27,18,13,27.80,27.61,6,1,10,0.00
2012-12-7,75.5,59.9,48.0,21.3,17.1,11.1,29,19,13,27.74,27.64,10,0,10,0.00
2012-12-8,73.4,57.2,43.5,27.4,20.9,11.7,48,26,13,27.78,27.65,6,0,8,0.00
2012-12-9,69.2,55.9,43.3,23.1,16.6,6.0,36,22,15,27.87,27.71,8,1,15,0.00
2012-12-10,64.4,49.5,38.1,17.0,7.2,0.0,21,18,15,27.91,27.75,6,0,10,0.00
2012-12-11,68.9,48.6,33.2,19.3,6.1,-3.0,20,17,15,27.89,27.74,6,0,8,0.00
2012-12-12,73.7,54.0,36.3,21.1,9.8,-2.0,19,17,13,27.85,27.68,5,0,8,0.00
2012-12-13,70.3,57.7,46.9,47.6,20.1,6.8,78,27,14,27.77,27.52,10,2,18,0.48
2012-12-14,54.5,47.6,42.0,48.8,35.5,25.6,85,64,40,27.84,27.52,11,1,15,0.28
2012-12-15,55.4,49.7,46.5,41.6,34.9,25.6,75,58,36,27.84,27.73,8,1,11,0.08
2012-12-16,56.3,48.4,39.9,42.8,31.6,17.8,86,57,25,27.97,27.80,8,2,13,0.08
2012-12-17,65.1,46.8,35.7,43.6,28.9,21.6,87,55,20,27.98,27.78,4,0,8,0.00
2012-12-18,68.7,53.2,38.6,39.6,31.0,20.8,82,48,17,27.79,27.53,7,0,13,0.00
2012-12-19,57.2,46.7,40.6,35.7,28.7,22.2,65,50,31,27.84,27.55,11,5,23,0.12
2012-12-20,64.2,58.2,55.2,17.0,12.9,8.4,17,16,14,27.92,27.88,6,3,12,0.00
2012-12-21,73.0,56.7,42.4,21.0,11.2,1.9,19,16,14,27.92,27.77,8,1,11,0.00
2012-12-22,72.1,57.9,48.7,27.9,16.5,8.3,44,21,14,27.92,27.80,7,0,10,0.00
2012-12-23,70.5,53.3,41.0,38.0,25.5,14.4,71,39,14,27.95,27.78,5,0,8,0.00
2012-12-24,63.6,52.7,42.9,30.5,26.0,21.8,55,37,21,27.87,27.66,9,2,14,0.00
2012-12-25,56.1,49.4,41.9,31.4,22.2,13.5,63,36,23,27.89,27.77,7,2,12,0.00
2012-12-26,66.7,50.9,37.7,22.9,15.7,6.7,50,26,15,27.81,27.60,5,1,11,0.00
2012-12-27,55.9,43.0,33.6,27.7,20.0,12.7,64,42,20,27.85,27.64,9,1,25,0.00
2012-12-28,58.4,42.8,32.3,32.1,20.6,12.5,81,46,17,27.94,27.82,5,0,10,0.00
2012-12-29,66.2,47.0,32.7,19.3,15.6,12.3,53,32,15,27.92,27.72,8,1,11,0.00
2012-12-30,63.3,47.4,39.5,32.8,16.4,9.6,74,32,16,27.73,27.58,7,1,11,0.24
2012-12-31,50.0,43.0,34.3,40.8,23.1,15.2,86,47,28,27.98,27.73,7,1,11,0.00
2013-1-1,55.2,40.7,29.3,29.8,18.5,9.6,79,46,18,28.02,27.86,6,0,9,0.00